sensor_id;sensor_type;location;lat;lon;timestamp;pressure;altitude;pressure_sealevel;temperature;humidity
59767;BME280;46248;58.364;25.582;2023-12-22T00:01:35;96367.69;;;-0.54;100.00
59767;BME280;46248;58.364;25.582;2023-12-22T00:04:58;96354.84;;;-0.54;100.00
59767;BME280;46248;58.364;25.582;2023-12-22T00:08:21;96352.38;;;-0.56;100.00
59767;BME280;46248;58.364;25.582;2023-12-22T00:11:46;96331.09;;;-0.58;100.00
59767;BME280;46248;58.364;25.582;2023-12-22T00:15:09;96338.00;;;-0.58;100.00
59767;BME280;46248;58.364;25.582;2023-12-22T00:18:32;96332.84;;;-0.58;100.00
59767;BME280;46248;58.364;25.582;2023-12-22T00:21:55;96321.66;;;-0.57;100.00
59767;BME280;46248;58.364;25.582;2023-12-22T00:25:19;96324.81;;;-0.54;100.00
59767;BME280;46248;58.364;25.582;2023-12-22T00:28:43;96298.31;;;-0.54;100.00
59767;BME280;46248;58.364;25.582;2023-12-22T00:32:06;96305.53;;;-0.59;100.00
59767;BME280;46248;58.364;25.582;2023-12-22T00:35:31;96302.38;;;-0.52;100.00
59767;BME280;46248;58.364;25.582;2023-12-22T00:38:54;96291.28;;;-0.52;100.00
59767;BME280;46248;58.364;25.582;2023-12-22T00:42:17;96285.34;;;-0.53;100.00
59767;BME280;46248;58.364;25.582;2023-12-22T00:45:41;96280.09;;;-0.51;100.00
59767;BME280;46248;58.364;25.582;2023-12-22T00:49:04;96268.97;;;-0.52;100.00
59767;BME280;46248;58.364;25.582;2023-12-22T00:52:27;96274.97;;;-0.51;100.00
59767;BME280;46248;58.364;25.582;2023-12-22T00:55:50;96268.06;;;-0.51;100.00
59767;BME280;46248;58.364;25.582;2023-12-22T00:59:12;96254.28;;;-0.50;100.00
59767;BME280;46248;58.364;25.582;2023-12-22T01:02:37;96250.09;;;-0.51;100.00
59767;BME280;46248;58.364;25.582;2023-12-22T01:06:00;96245.75;;;-0.50;100.00
59767;BME280;46248;58.364;25.582;2023-12-22T01:09:23;96243.91;;;-0.48;100.00
59767;BME280;46248;58.364;25.582;2023-12-22T01:12:46;96233.72;;;-0.50;100.00
59767;BME280;46248;58.364;25.582;2023-12-22T01:16:09;96228.34;;;-0.47;100.00
59767;BME280;46248;58.364;25.582;2023-12-22T01:19:33;96218.91;;;-0.46;100.00
59767;BME280;46248;58.364;25.582;2023-12-22T01:22:56;96229.16;;;-0.46;100.00
59767;BME280;46248;58.364;25.582;2023-12-22T01:26:19;96220.53;;;-0.45;100.00
59767;BME280;46248;58.364;25.582;2023-12-22T01:29:41;96204.28;;;-0.46;100.00
59767;BME280;46248;58.364;25.582;2023-12-22T01:33:04;96210.38;;;-0.47;100.00
59767;BME280;46248;58.364;25.582;2023-12-22T01:36:28;96210.94;;;-0.43;100.00
59767;BME280;46248;58.364;25.582;2023-12-22T01:39:51;96194.72;;;-0.43;100.00
59767;BME280;46248;58.364;25.582;2023-12-22T01:43:14;96189.47;;;-0.42;100.00
59767;BME280;46248;58.364;25.582;2023-12-22T01:46:43;96187.16;;;-0.45;100.00
59767;BME280;46248;58.364;25.582;2023-12-22T01:50:06;96178.25;;;-0.41;100.00
59767;BME280;46248;58.364;25.582;2023-12-22T01:53:34;96171.25;;;-0.39;100.00
59767;BME280;46248;58.364;25.582;2023-12-22T01:56:59;96170.41;;;-0.39;100.00
59767;BME280;46248;58.364;25.582;2023-12-22T02:00:23;96169.84;;;-0.43;100.00
59767;BME280;46248;58.364;25.582;2023-12-22T02:03:47;96161.09;;;-0.40;100.00
59767;BME280;46248;58.364;25.582;2023-12-22T02:07:14;96163.41;;;-0.37;100.00
59767;BME280;46248;58.364;25.582;2023-12-22T02:10:38;96156.50;;;-0.37;100.00
59767;BME280;46248;58.364;25.582;2023-12-22T02:14:01;96154.09;;;-0.38;100.00
59767;BME280;46248;58.364;25.582;2023-12-22T02:17:26;96156.28;;;-0.34;100.00
59767;BME280;46248;58.364;25.582;2023-12-22T02:20:52;96153.84;;;-0.35;100.00
59767;BME280;46248;58.364;25.582;2023-12-22T02:24:17;96146.94;;;-0.35;100.00
59767;BME280;46248;58.364;25.582;2023-12-22T02:27:44;96155.38;;;-0.33;100.00
59767;BME280;46248;58.364;25.582;2023-12-22T02:31:13;96136.09;;;-0.38;100.00
59767;BME280;46248;58.364;25.582;2023-12-22T02:34:41;96137.38;;;-0.33;100.00
59767;BME280;46248;58.364;25.582;2023-12-22T02:38:05;96133.03;;;-0.32;100.00
59767;BME280;46248;58.364;25.582;2023-12-22T02:41:31;96134.66;;;-0.31;100.00
59767;BME280;46248;58.364;25.582;2023-12-22T02:44:54;96125.19;;;-0.31;100.00
59767;BME280;46248;58.364;25.582;2023-12-22T02:48:17;96130.47;;;-0.32;100.00
59767;BME280;46248;58.364;25.582;2023-12-22T02:51:40;96128.72;;;-0.32;100.00
59767;BME280;46248;58.364;25.582;2023-12-22T02:55:04;96121.13;;;-0.33;100.00
59767;BME280;46248;58.364;25.582;2023-12-22T02:58:28;96115.88;;;-0.32;100.00
59767;BME280;46248;58.364;25.582;2023-12-22T03:01:50;96111.53;;;-0.31;100.00
59767;BME280;46248;58.364;25.582;2023-12-22T03:05:13;96096.25;;;-0.33;100.00
59767;BME280;46248;58.364;25.582;2023-12-22T03:08:36;96095.31;;;-0.32;100.00
59767;BME280;46248;58.364;25.582;2023-12-22T03:11:58;96094.34;;;-0.31;100.00
59767;BME280;46248;58.364;25.582;2023-12-22T03:15:24;96089.34;;;-0.32;100.00
59767;BME280;46248;58.364;25.582;2023-12-22T03:18:47;96085.03;;;-0.32;100.00
59767;BME280;46248;58.364;25.582;2023-12-22T03:22:11;96083.41;;;-0.33;100.00
59767;BME280;46248;58.364;25.582;2023-12-22T03:25:33;96087.50;;;-0.30;100.00
59767;BME280;46248;58.364;25.582;2023-12-22T03:28:56;96082.22;;;-0.29;100.00
59767;BME280;46248;58.364;25.582;2023-12-22T03:32:20;96083.84;;;-0.28;100.00
59767;BME280;46248;58.364;25.582;2023-12-22T03:35:44;96074.41;;;-0.27;100.00
59767;BME280;46248;58.364;25.582;2023-12-22T03:39:07;96072.88;;;-0.30;100.00
59767;BME280;46248;58.364;25.582;2023-12-22T03:42:30;96077.88;;;-0.28;100.00
59767;BME280;46248;58.364;25.582;2023-12-22T03:45:53;96065.84;;;-0.28;100.00
59767;BME280;46248;58.364;25.582;2023-12-22T03:49:17;96063.19;;;-0.26;100.00
59767;BME280;46248;58.364;25.582;2023-12-22T03:52:40;96058.03;;;-0.26;100.00
59767;BME280;46248;58.364;25.582;2023-12-22T03:56:04;96059.78;;;-0.27;100.00
59767;BME280;46248;58.364;25.582;2023-12-22T03:59:27;96056.50;;;-0.29;100.00
59767;BME280;46248;58.364;25.582;2023-12-22T04:02:50;96050.56;;;-0.29;100.00
59767;BME280;46248;58.364;25.582;2023-12-22T04:06:17;96041.00;;;-0.27;100.00
59767;BME280;46248;58.364;25.582;2023-12-22T04:09:40;96043.66;;;-0.29;100.00
59767;BME280;46248;58.364;25.582;2023-12-22T04:13:03;96037.34;;;-0.25;100.00
59767;BME280;46248;58.364;25.582;2023-12-22T04:16:26;96028.81;;;-0.25;100.00
59767;BME280;46248;58.364;25.582;2023-12-22T04:19:49;96029.63;;;-0.25;100.00
59767;BME280;46248;58.364;25.582;2023-12-22T04:23:15;96035.59;;;-0.24;100.00
59767;BME280;46248;58.364;25.582;2023-12-22T04:26:37;96031.28;;;-0.24;100.00
59767;BME280;46248;58.364;25.582;2023-12-22T04:30:00;96023.25;;;-0.30;100.00
59767;BME280;46248;58.364;25.582;2023-12-22T04:33:23;96022.84;;;-0.26;100.00
59767;BME280;46248;58.364;25.582;2023-12-22T04:36:46;96025.44;;;-0.26;100.00
59767;BME280;46248;58.364;25.582;2023-12-22T04:40:12;96031.13;;;-0.22;100.00
59767;BME280;46248;58.364;25.582;2023-12-22T04:43:35;96031.03;;;-0.20;100.00
59767;BME280;46248;58.364;25.582;2023-12-22T04:47:00;96034.66;;;-0.23;100.00
59767;BME280;46248;58.364;25.582;2023-12-22T04:50:23;96031.94;;;-0.21;100.00
59767;BME280;46248;58.364;25.582;2023-12-22T04:53:46;96035.47;;;-0.22;100.00
59767;BME280;46248;58.364;25.582;2023-12-22T04:57:11;96022.75;;;-0.24;100.00
59767;BME280;46248;58.364;25.582;2023-12-22T05:00:38;96027.91;;;-0.24;100.00
59767;BME280;46248;58.364;25.582;2023-12-22T05:04:01;96014.59;;;-0.29;100.00
59767;BME280;46248;58.364;25.582;2023-12-22T05:07:24;96029.50;;;-0.23;100.00
59767;BME280;46248;58.364;25.582;2023-12-22T05:10:46;96033.03;;;-0.24;100.00
59767;BME280;46248;58.364;25.582;2023-12-22T05:14:11;96014.44;;;-0.28;100.00
59767;BME280;46248;58.364;25.582;2023-12-22T05:17:34;96026.00;;;-0.22;100.00
59767;BME280;46248;58.364;25.582;2023-12-22T05:20:57;96020.03;;;-0.22;100.00
59767;BME280;46248;58.364;25.582;2023-12-22T05:24:20;96026.94;;;-0.23;100.00
59767;BME280;46248;58.364;25.582;2023-12-22T05:27:43;96029.50;;;-0.23;100.00
59767;BME280;46248;58.364;25.582;2023-12-22T05:31:07;96021.66;;;-0.21;100.00
59767;BME280;46248;58.364;25.582;2023-12-22T05:34:30;96026.81;;;-0.21;100.00
59767;BME280;46248;58.364;25.582;2023-12-22T05:37:54;96008.75;;;-0.31;100.00
59767;BME280;46248;58.364;25.582;2023-12-22T05:41:17;96027.41;;;-0.18;100.00
59767;BME280;46248;58.364;25.582;2023-12-22T05:44:40;96028.06;;;-0.16;100.00
59767;BME280;46248;58.364;25.582;2023-12-22T05:48:05;96036.50;;;-0.14;100.00
59767;BME280;46248;58.364;25.582;2023-12-22T05:51:29;96037.56;;;-0.16;100.00
59767;BME280;46248;58.364;25.582;2023-12-22T05:54:51;96044.22;;;-0.14;100.00
59767;BME280;46248;58.364;25.582;2023-12-22T05:58:15;96045.16;;;-0.15;100.00
59767;BME280;46248;58.364;25.582;2023-12-22T06:01:38;96055.19;;;-0.12;100.00
59767;BME280;46248;58.364;25.582;2023-12-22T06:05:03;96048.16;;;-0.10;100.00
59767;BME280;46248;58.364;25.582;2023-12-22T06:08:26;96059.25;;;-0.09;100.00
59767;BME280;46248;58.364;25.582;2023-12-22T06:11:49;96050.72;;;-0.10;100.00
59767;BME280;46248;58.364;25.582;2023-12-22T06:15:13;96048.16;;;-0.10;100.00
59767;BME280;46248;58.364;25.582;2023-12-22T06:18:35;96050.72;;;-0.10;100.00
59767;BME280;46248;58.364;25.582;2023-12-22T06:21:59;96067.66;;;-0.07;100.00
59767;BME280;46248;58.364;25.582;2023-12-22T06:25:23;96066.72;;;-0.06;100.00
59767;BME280;46248;58.364;25.582;2023-12-22T06:28:46;96066.72;;;-0.06;100.00
59767;BME280;46248;58.364;25.582;2023-12-22T06:32:09;96062.41;;;-0.06;100.00
59767;BME280;46248;58.364;25.582;2023-12-22T06:35:31;96081.22;;;-0.05;100.00
59767;BME280;46248;58.364;25.582;2023-12-22T06:38:56;96086.22;;;-0.04;100.00
59767;BME280;46248;58.364;25.582;2023-12-22T06:42:19;96092.31;;;-0.05;100.00
59767;BME280;46248;58.364;25.582;2023-12-22T06:45:42;96100.03;;;-0.05;100.00
59767;BME280;46248;58.364;25.582;2023-12-22T06:49:05;96097.47;;;-0.05;100.00
59767;BME280;46248;58.364;25.582;2023-12-22T06:52:28;96104.13;;;-0.02;100.00
59767;BME280;46248;58.364;25.582;2023-12-22T06:55:53;96106.13;;;-0.06;100.00
59767;BME280;46248;58.364;25.582;2023-12-22T06:59:17;96116.84;;;-0.01;100.00
59767;BME280;46248;58.364;25.582;2023-12-22T07:02:41;96098.41;;;-0.06;100.00
59767;BME280;46248;58.364;25.582;2023-12-22T07:06:05;96109.59;;;0.05;100.00
59767;BME280;46248;58.364;25.582;2023-12-22T07:09:30;96116.13;;;0.09;100.00
59767;BME280;46248;58.364;25.582;2023-12-22T07:12:54;96121.00;;;0.12;100.00
59767;BME280;46248;58.364;25.582;2023-12-22T07:16:17;96120.78;;;0.15;100.00
59767;BME280;46248;58.364;25.582;2023-12-22T07:19:41;96127.44;;;0.17;100.00
59767;BME280;46248;58.364;25.582;2023-12-22T07:23:04;96125.66;;;0.18;100.00
59767;BME280;46248;58.364;25.582;2023-12-22T07:26:26;96133.03;;;0.22;100.00
59767;BME280;46248;58.364;25.582;2023-12-22T07:29:51;96131.97;;;0.25;100.00
59767;BME280;46248;58.364;25.582;2023-12-22T07:33:14;96137.69;;;0.29;100.00
59767;BME280;46248;58.364;25.582;2023-12-22T07:36:37;96142.03;;;0.28;100.00
59767;BME280;46248;58.364;25.582;2023-12-22T07:40:11;96144.22;;;0.33;100.00
59767;BME280;46248;58.364;25.582;2023-12-22T07:43:35;96140.81;;;0.32;100.00
59767;BME280;46248;58.364;25.582;2023-12-22T07:47:00;96143.16;;;0.35;100.00
59767;BME280;46248;58.364;25.582;2023-12-22T07:50:23;96148.19;;;0.37;100.00
59767;BME280;46248;58.364;25.582;2023-12-22T07:53:46;96154.97;;;0.38;100.00
59767;BME280;46248;58.364;25.582;2023-12-22T07:57:09;96157.28;;;0.41;100.00
59767;BME280;46248;58.364;25.582;2023-12-22T08:00:33;96165.72;;;0.43;100.00
59767;BME280;46248;58.364;25.582;2023-12-22T08:03:57;96167.22;;;0.45;100.00
59767;BME280;46248;58.364;25.582;2023-12-22T08:07:21;96174.69;;;0.49;100.00
59767;BME280;46248;58.364;25.582;2023-12-22T08:10:43;96174.69;;;0.49;100.00
59767;BME280;46248;58.364;25.582;2023-12-22T08:14:06;96180.41;;;0.52;100.00
59767;BME280;46248;58.364;25.582;2023-12-22T08:17:29;96175.03;;;0.55;100.00
59767;BME280;46248;58.364;25.582;2023-12-22T08:20:54;96173.81;;;0.59;100.00
59767;BME280;46248;58.364;25.582;2023-12-22T08:24:17;96175.09;;;0.65;100.00
59767;BME280;46248;58.364;25.582;2023-12-22T08:27:43;96182.69;;;0.66;100.00
59767;BME280;46248;58.364;25.582;2023-12-22T08:31:06;96192.97;;;0.66;100.00
59767;BME280;46248;58.364;25.582;2023-12-22T08:34:29;96199.53;;;0.71;100.00
59767;BME280;46248;58.364;25.582;2023-12-22T08:37:59;96205.34;;;0.73;100.00
59767;BME280;46248;58.364;25.582;2023-12-22T08:41:22;96197.63;;;0.73;100.00
59767;BME280;46248;58.364;25.582;2023-12-22T08:44:46;96210.50;;;0.73;100.00
59767;BME280;46248;58.364;25.582;2023-12-22T08:48:08;96205.94;;;0.76;100.00
59767;BME280;46248;58.364;25.582;2023-12-22T08:51:32;96213.28;;;0.81;100.00
59767;BME280;46248;58.364;25.582;2023-12-22T08:54:57;96216.66;;;0.81;100.00
59767;BME280;46248;58.364;25.582;2023-12-22T08:58:20;96220.91;;;0.82;100.00
59767;BME280;46248;58.364;25.582;2023-12-22T09:01:44;96218.44;;;0.81;100.00
59767;BME280;46248;58.364;25.582;2023-12-22T09:05:07;96210.16;;;0.77;100.00
59767;BME280;46248;58.364;25.582;2023-12-22T09:08:31;96213.19;;;0.82;100.00
59767;BME280;46248;58.364;25.582;2023-12-22T09:11:55;96224.16;;;0.84;100.00
59767;BME280;46248;58.364;25.582;2023-12-22T09:15:18;96224.03;;;0.86;100.00
59767;BME280;46248;58.364;25.582;2023-12-22T09:18:41;96218.06;;;0.85;100.00
59767;BME280;46248;58.364;25.582;2023-12-22T09:22:06;96226.38;;;0.89;100.00
59767;BME280;46248;58.364;25.582;2023-12-22T09:25:29;96224.09;;;0.96;100.00
59767;BME280;46248;58.364;25.582;2023-12-22T09:28:54;96220.78;;;1.05;100.00
59767;BME280;46248;58.364;25.582;2023-12-22T09:32:18;96218.66;;;1.10;100.00
59767;BME280;46248;58.364;25.582;2023-12-22T09:35:41;96210.69;;;1.13;100.00
59767;BME280;46248;58.364;25.582;2023-12-22T09:39:04;96208.91;;;1.13;100.00
59767;BME280;46248;58.364;25.582;2023-12-22T09:42:27;96216.53;;;1.15;100.00
59767;BME280;46248;58.364;25.582;2023-12-22T09:45:52;96219.31;;;1.12;100.00
59767;BME280;46248;58.364;25.582;2023-12-22T09:49:17;96208.84;;;1.04;100.00
59767;BME280;46248;58.364;25.582;2023-12-22T09:52:43;96205.00;;;0.98;100.00
59767;BME280;46248;58.364;25.582;2023-12-22T09:56:06;96204.47;;;0.95;100.00
59767;BME280;46248;58.364;25.582;2023-12-22T09:59:30;96217.59;;;0.91;100.00
59767;BME280;46248;58.364;25.582;2023-12-22T10:02:57;96215.25;;;0.88;100.00
59767;BME280;46248;58.364;25.582;2023-12-22T10:06:20;96214.56;;;0.86;100.00
59767;BME280;46248;58.364;25.582;2023-12-22T10:09:43;96207.78;;;0.85;100.00
59767;BME280;46248;58.364;25.582;2023-12-22T10:13:08;96211.72;;;0.89;100.00
59767;BME280;46248;58.364;25.582;2023-12-22T10:16:31;96216.88;;;0.89;100.00
59767;BME280;46248;58.364;25.582;2023-12-22T10:19:56;96213.81;;;0.96;100.00
59767;BME280;46248;58.364;25.582;2023-12-22T10:23:19;96222.91;;;1.00;100.00
59767;BME280;46248;58.364;25.582;2023-12-22T10:26:42;96210.63;;;1.03;100.00
59767;BME280;46248;58.364;25.582;2023-12-22T10:30:07;96228.41;;;1.06;100.00
59767;BME280;46248;58.364;25.582;2023-12-22T10:33:30;96226.50;;;1.08;100.00
59767;BME280;46248;58.364;25.582;2023-12-22T10:36:54;96232.47;;;1.09;100.00
59767;BME280;46248;58.364;25.582;2023-12-22T10:40:17;96231.53;;;1.10;100.00
59767;BME280;46248;58.364;25.582;2023-12-22T10:43:41;96219.56;;;1.09;100.00
59767;BME280;46248;58.364;25.582;2023-12-22T10:47:05;96219.47;;;1.10;100.00
59767;BME280;46248;58.364;25.582;2023-12-22T10:50:28;96225.31;;;1.12;100.00
59767;BME280;46248;58.364;25.582;2023-12-22T10:53:53;96230.34;;;1.14;100.00
59767;BME280;46248;58.364;25.582;2023-12-22T10:57:17;96233.06;;;1.12;100.00
59767;BME280;46248;58.364;25.582;2023-12-22T11:00:41;96227.66;;;1.16;100.00
59767;BME280;46248;58.364;25.582;2023-12-22T11:04:09;96226.59;;;1.18;100.00
59767;BME280;46248;58.364;25.582;2023-12-22T11:07:35;96228.22;;;1.19;100.00
59767;BME280;46248;58.364;25.582;2023-12-22T11:11:08;96225.63;;;1.19;100.00
59767;BME280;46248;58.364;25.582;2023-12-22T11:14:36;96227.00;;;1.23;100.00
59767;BME280;46248;58.364;25.582;2023-12-22T11:18:01;96221.75;;;1.25;100.00
59767;BME280;46248;58.364;25.582;2023-12-22T11:21:25;96227.81;;;1.24;100.00
59767;BME280;46248;58.364;25.582;2023-12-22T11:24:49;96213.44;;;1.21;100.00
59767;BME280;46248;58.364;25.582;2023-12-22T11:28:14;96221.19;;;1.21;100.00
59767;BME280;46248;58.364;25.582;2023-12-22T11:31:39;96224.56;;;1.22;100.00
59767;BME280;46248;58.364;25.582;2023-12-22T11:35:03;96219.66;;;1.19;100.00
59767;BME280;46248;58.364;25.582;2023-12-22T11:38:29;96220.47;;;1.19;100.00
59767;BME280;46248;58.364;25.582;2023-12-22T11:41:53;96224.69;;;1.20;100.00
59767;BME280;46248;58.364;25.582;2023-12-22T11:45:19;96211.50;;;1.13;100.00
59767;BME280;46248;58.364;25.582;2023-12-22T11:48:47;96225.38;;;1.22;100.00
59767;BME280;46248;58.364;25.582;2023-12-22T11:52:13;96223.75;;;1.21;100.00
59767;BME280;46248;58.364;25.582;2023-12-22T11:55:57;96220.47;;;1.19;100.00
59767;BME280;46248;58.364;25.582;2023-12-22T11:59:21;96232.56;;;1.19;100.00
59767;BME280;46248;58.364;25.582;2023-12-22T12:02:54;96212.69;;;1.09;100.00
59767;BME280;46248;58.364;25.582;2023-12-22T12:06:22;96223.06;;;1.19;100.00
59767;BME280;46248;58.364;25.582;2023-12-22T12:09:56;96226.34;;;1.21;100.00
59767;BME280;46248;58.364;25.582;2023-12-22T12:13:23;96220.09;;;1.24;100.00
59767;BME280;46248;58.364;25.582;2023-12-22T12:16:47;96222.16;;;1.30;100.00
59767;BME280;46248;58.364;25.582;2023-12-22T12:20:12;96213.50;;;1.31;100.00
59767;BME280;46248;58.364;25.582;2023-12-22T12:23:36;96220.28;;;1.32;100.00
59767;BME280;46248;58.364;25.582;2023-12-22T12:27:00;96232.47;;;1.30;100.00
59767;BME280;46248;58.364;25.582;2023-12-22T12:30:24;96240.19;;;1.30;100.00
59767;BME280;46248;58.364;25.582;2023-12-22T12:33:48;96235.03;;;1.30;100.00
59767;BME280;46248;58.364;25.582;2023-12-22T12:37:13;96232.59;;;1.28;100.00
59767;BME280;46248;58.364;25.582;2023-12-22T12:40:39;96224.31;;;1.25;100.00
59767;BME280;46248;58.364;25.582;2023-12-22T12:44:03;96227.44;;;1.28;100.00
59767;BME280;46248;58.364;25.582;2023-12-22T12:47:27;96225.94;;;1.26;100.00
59767;BME280;46248;58.364;25.582;2023-12-22T12:50:50;96233.66;;;1.26;100.00
59767;BME280;46248;58.364;25.582;2023-12-22T12:54:15;96228.66;;;1.24;100.00
59767;BME280;46248;58.364;25.582;2023-12-22T12:57:38;96222.09;;;1.20;100.00
59767;BME280;46248;58.364;25.582;2023-12-22T13:01:07;96232.84;;;1.25;100.00
59767;BME280;46248;58.364;25.582;2023-12-22T13:04:40;96238.97;;;1.24;100.00
59767;BME280;46248;58.364;25.582;2023-12-22T13:08:08;96234.63;;;1.25;100.00
59767;BME280;46248;58.364;25.582;2023-12-22T13:11:33;96233.91;;;1.23;100.00
59767;BME280;46248;58.364;25.582;2023-12-22T13:15:02;96232.28;;;1.22;100.00
59767;BME280;46248;58.364;25.582;2023-12-22T13:18:25;96233.09;;;1.22;100.00
59767;BME280;46248;58.364;25.582;2023-12-22T13:21:48;96222.25;;;1.19;100.00
59767;BME280;46248;58.364;25.582;2023-12-22T13:25:11;96233.22;;;1.21;100.00
59767;BME280;46248;58.364;25.582;2023-12-22T13:28:36;96231.75;;;1.18;100.00
59767;BME280;46248;58.364;25.582;2023-12-22T13:31:59;96235.22;;;1.17;100.00
59767;BME280;46248;58.364;25.582;2023-12-22T13:35:23;96239.56;;;1.17;100.00
59767;BME280;46248;58.364;25.582;2023-12-22T13:38:47;96232.66;;;1.17;100.00
59767;BME280;46248;58.364;25.582;2023-12-22T13:42:15;96229.41;;;1.15;100.00
59767;BME280;46248;58.364;25.582;2023-12-22T13:45:40;96232.09;;;1.13;100.00
59767;BME280;46248;58.364;25.582;2023-12-22T13:49:05;96233.88;;;1.13;100.00
59767;BME280;46248;58.364;25.582;2023-12-22T13:52:31;96235.63;;;1.12;100.00
59767;BME280;46248;58.364;25.582;2023-12-22T13:55:57;96228.72;;;1.13;100.00
59767;BME280;46248;58.364;25.582;2023-12-22T13:59:30;96236.44;;;1.13;100.00
59767;BME280;46248;58.364;25.582;2023-12-22T14:03:04;96236.56;;;1.11;100.00
59767;BME280;46248;58.364;25.582;2023-12-22T14:06:28;96239.00;;;1.13;100.00
59767;BME280;46248;58.364;25.582;2023-12-22T14:09:52;96242.41;;;1.13;100.00
59767;BME280;46248;58.364;25.582;2023-12-22T14:13:15;96235.47;;;1.14;100.00
59767;BME280;46248;58.364;25.582;2023-12-22T14:16:38;96240.06;;;1.10;100.00
59767;BME280;46248;58.364;25.582;2023-12-22T14:20:02;96236.94;;;1.07;100.00
59767;BME280;46248;58.364;25.582;2023-12-22T14:23:27;96253.78;;;1.11;100.00
59767;BME280;46248;58.364;25.582;2023-12-22T14:26:53;96246.19;;;1.09;100.00
59767;BME280;46248;58.364;25.582;2023-12-22T14:30:17;96227.00;;;1.02;100.00
59767;BME280;46248;58.364;25.582;2023-12-22T14:33:40;96244.41;;;1.10;100.00
59767;BME280;46248;58.364;25.582;2023-12-22T14:37:05;96250.63;;;1.07;100.00
59767;BME280;46248;58.364;25.582;2023-12-22T14:40:28;96253.44;;;1.04;100.00
59767;BME280;46248;58.364;25.582;2023-12-22T14:43:51;96262.38;;;1.00;100.00
59767;BME280;46248;58.364;25.582;2023-12-22T14:47:15;96261.13;;;0.95;100.00
59767;BME280;46248;58.364;25.582;2023-12-22T14:50:38;96263.13;;;0.91;100.00
59767;BME280;46248;58.364;25.582;2023-12-22T14:54:05;96266.06;;;0.86;100.00
59767;BME280;46248;58.364;25.582;2023-12-22T14:57:31;96271.59;;;0.82;100.00
59767;BME280;46248;58.364;25.582;2023-12-22T15:00:55;96273.69;;;0.77;100.00
59767;BME280;46248;58.364;25.582;2023-12-22T15:04:18;96274.06;;;0.72;100.00
59767;BME280;46248;58.364;25.582;2023-12-22T15:07:42;96277.81;;;0.68;100.00
59767;BME280;46248;58.364;25.582;2023-12-22T15:11:06;96280.25;;;0.69;100.00
59767;BME280;46248;58.364;25.582;2023-12-22T15:14:29;96279.44;;;0.69;100.00
59767;BME280;46248;58.364;25.582;2023-12-22T15:17:53;96284.59;;;0.69;100.00
59767;BME280;46248;58.364;25.582;2023-12-22T15:21:19;96283.91;;;0.67;100.00
59767;BME280;46248;58.364;25.582;2023-12-22T15:24:43;96295.03;;;0.67;100.00
59767;BME280;46248;58.364;25.582;2023-12-22T15:28:07;96287.41;;;0.66;100.00
59767;BME280;46248;58.364;25.582;2023-12-22T15:31:30;96295.63;;;0.60;100.00
59767;BME280;46248;58.364;25.582;2023-12-22T15:34:57;96296.19;;;0.63;100.00
59767;BME280;46248;58.364;25.582;2023-12-22T15:38:20;96297.03;;;0.64;100.00
59767;BME280;46248;58.364;25.582;2023-12-22T15:41:43;96295.25;;;0.64;100.00
59767;BME280;46248;58.364;25.582;2023-12-22T15:45:10;96304.75;;;0.64;100.00
59767;BME280;46248;58.364;25.582;2023-12-22T15:48:33;96300.66;;;0.61;100.00
59767;BME280;46248;58.364;25.582;2023-12-22T15:51:56;96309.19;;;0.62;100.00
59767;BME280;46248;58.364;25.582;2023-12-22T15:55:18;96306.63;;;0.62;100.00
59767;BME280;46248;58.364;25.582;2023-12-22T15:58:42;96301.72;;;0.59;100.00
59767;BME280;46248;58.364;25.582;2023-12-22T16:02:08;96299.84;;;0.61;100.00
59767;BME280;46248;58.364;25.582;2023-12-22T16:05:32;96307.56;;;0.61;100.00
59767;BME280;46248;58.364;25.582;2023-12-22T16:08:55;96306.84;;;0.59;100.00
59767;BME280;46248;58.364;25.582;2023-12-22T16:12:18;96313.63;;;0.60;100.00
59767;BME280;46248;58.364;25.582;2023-12-22T16:15:41;96309.19;;;0.62;100.00
59767;BME280;46248;58.364;25.582;2023-12-22T16:19:06;96311.75;;;0.62;100.00
59767;BME280;46248;58.364;25.582;2023-12-22T16:22:31;96315.97;;;0.63;100.00
59767;BME280;46248;58.364;25.582;2023-12-22T16:25:55;96319.34;;;0.63;100.00
59767;BME280;46248;58.364;25.582;2023-12-22T16:29:18;96319.25;;;0.65;100.00
59767;BME280;46248;58.364;25.582;2023-12-22T16:32:42;96323.69;;;0.63;100.00
59767;BME280;46248;58.364;25.582;2023-12-22T16:36:09;96326.03;;;0.66;100.00
59767;BME280;46248;58.364;25.582;2023-12-22T16:39:32;96322.88;;;0.62;100.00
59767;BME280;46248;58.364;25.582;2023-12-22T16:42:58;96317.00;;;0.60;100.00
59767;BME280;46248;58.364;25.582;2023-12-22T16:46:22;96330.59;;;0.62;100.00
59767;BME280;46248;58.364;25.582;2023-12-22T16:49:46;96328.97;;;0.61;100.00
59767;BME280;46248;58.364;25.582;2023-12-22T16:53:11;96328.84;;;0.63;100.00
59767;BME280;46248;58.364;25.582;2023-12-22T16:56:35;96338.31;;;0.62;100.00
59767;BME280;46248;58.364;25.582;2023-12-22T16:59:58;96338.31;;;0.62;100.00
59767;BME280;46248;58.364;25.582;2023-12-22T17:03:21;96344.28;;;0.63;100.00
59767;BME280;46248;58.364;25.582;2023-12-22T17:06:47;96341.03;;;0.61;100.00
59767;BME280;46248;58.364;25.582;2023-12-22T17:10:13;96348.75;;;0.61;100.00
59767;BME280;46248;58.364;25.582;2023-12-22T17:13:38;96344.28;;;0.63;100.00
59767;BME280;46248;58.364;25.582;2023-12-22T17:17:01;96347.81;;;0.62;100.00
59767;BME280;46248;58.364;25.582;2023-12-22T17:20:25;96348.75;;;0.61;100.00
59767;BME280;46248;58.364;25.582;2023-12-22T17:23:48;96358.19;;;0.60;100.00
59767;BME280;46248;58.364;25.582;2023-12-22T17:27:13;96351.19;;;0.62;100.00
59767;BME280;46248;58.364;25.582;2023-12-22T17:30:36;96353.75;;;0.62;100.00
59767;BME280;46248;58.364;25.582;2023-12-22T17:33:59;96353.19;;;0.59;100.00
59767;BME280;46248;58.364;25.582;2023-12-22T17:37:22;96361.50;;;0.62;100.00
59767;BME280;46248;58.364;25.582;2023-12-22T17:40:45;96352.94;;;0.62;100.00